Time;durP1;ratioP1;P1;durP2;ratioP2;P2;SDS_P1;SDS_P2;PMS_P1;PMS_P2;Temp;Humidity;BMP_temperature;BMP_pressure;BME280_temperature;BME280_humidity;BME280_pressure;Samples;Min_cycle;Max_cycle;Signal;HPM_P1;HPM_P2
2022/11/11 00:01:09;;;;;;;200.07;96.30;;;;;;;;;;4470185;32;20212;-88
2022/11/11 00:03:39;;;;;;;186.57;95.20;;;;;;;;;;4471235;32;20272;-88
2022/11/11 00:06:09;;;;;;;168.30;93.23;;;;;;;;;;4471511;32;20238;-87
2022/11/11 00:08:36;;;;;;;186.37;96.50;;;;;;;;;;4470974;32;20220;-88
2022/11/11 00:11:05;;;;;;;175.20;96.70;;;;;;;;;;4471609;32;20228;-88
2022/11/11 00:13:33;;;;;;;182.93;93.27;;;;;;;;;;4470882;32;20220;-87
2022/11/11 00:16:09;;;;;;;185.63;90.53;;;;;;;;;;4470907;32;20296;-88
2022/11/11 00:27:05;;;;;;;187.87;90.53;;;;;;;;;;4470811;32;20678;-87
2022/11/11 00:29:32;;;;;;;181.03;93.93;;;;;;;;;;4469646;32;20244;-87
2022/11/11 00:35:52;;;;;;;164.07;88.80;;;;;;;;;;4471845;32;20598;-88
2022/11/11 00:37:31;;;;;;;171.73;88.00;;;;;;;;;;4471355;32;20276;-88
2022/11/11 00:39:59;;;;;;;187.27;90.70;;;;;;;;;;4471735;32;20227;-87
2022/11/11 00:42:26;;;;;;;184.83;92.27;;;;;;;;;;4471148;32;20222;-88
2022/11/11 00:44:56;;;;;;;199.10;99.20;;;;;;;;;;4471156;32;20212;-88
2022/11/11 00:52:58;;;;;;;185.53;87.23;;;;;;;;;;4469655;32;20231;-87
2022/11/11 00:55:27;;;;;;;172.17;84.47;;;;;;;;;;4470366;32;20204;-87
2022/11/11 00:57:54;;;;;;;153.30;76.17;;;;;;;;;;4470865;32;20235;-87
2022/11/11 01:00:21;;;;;;;144.00;73.50;;;;;;;;;;4471580;32;20208;-88
2022/11/11 01:02:50;;;;;;;147.27;76.70;;;;;;;;;;4472267;32;20234;-88
2022/11/11 01:05:17;;;;;;;130.07;68.30;;;;;;;;;;4470711;32;20254;-88
2022/11/11 01:07:44;;;;;;;115.10;63.03;;;;;;;;;;4471290;32;20219;-87
2022/11/11 01:10:37;;;;;;;102.87;56.80;;;;;;;;;;4471585;32;20197;-88
2022/11/11 01:13:15;;;;;;;99.57;54.20;;;;;;;;;;4470325;32;20588;-87
2022/11/11 01:15:44;;;;;;;109.70;58.30;;;;;;;;;;4470550;32;20525;-88
2022/11/11 01:18:15;;;;;;;102.13;56.53;;;;;;;;;;4469861;32;20283;-87
2022/11/11 01:20:43;;;;;;;126.30;59.63;;;;;;;;;;4470785;32;20218;-88
2022/11/11 01:23:13;;;;;;;102.60;55.00;;;;;;;;;;4470691;32;20266;-88
2022/11/11 01:25:45;;;;;;;108.27;58.87;;;;;;;;;;4470022;32;20278;-88
2022/11/11 01:28:13;;;;;;;118.27;58.07;;;;;;;;;;4469895;32;20648;-88
2022/11/11 01:30:40;;;;;;;111.67;61.43;;;;;;;;;;4470281;32;20274;-88
2022/11/11 01:33:10;;;;;;;122.33;61.30;;;;;;;;;;4470046;32;20246;-89
2022/11/11 01:35:40;;;;;;;108.30;59.50;;;;;;;;;;4468849;32;20270;-87
2022/11/11 01:38:08;;;;;;;136.03;65.87;;;;;;;;;;4469807;32;20211;-88
2022/11/11 01:40:47;;;;;;;144.17;71.17;;;;;;;;;;4469562;32;20268;-87
2022/11/11 01:43:20;;;;;;;162.27;79.97;;;;;;;;;;4469088;32;20243;-88
2022/11/11 01:45:54;;;;;;;137.27;66.50;;;;;;;;;;4469994;32;20214;-87
2022/11/11 01:51:20;;;;;;;113.63;56.40;;;;;;;;;;4469682;32;20209;-90
2022/11/11 01:53:54;;;;;;;112.27;55.67;;;;;;;;;;4469629;32;20254;-88
2022/11/11 01:56:22;;;;;;;122.27;55.93;;;;;;;;;;4468742;32;20285;-88
2022/11/11 01:58:50;;;;;;;171.07;65.40;;;;;;;;;;4469279;32;20292;-88
2022/11/11 02:01:19;;;;;;;172.10;66.37;;;;;;;;;;4469757;32;20272;-87
2022/11/11 02:06:31;;;;;;;147.90;64.77;;;;;;;;;;4468883;32;20307;-87
2022/11/11 02:08:59;;;;;;;138.33;64.37;;;;;;;;;;4469464;32;20227;-89
2022/11/11 02:17:00;;;;;;;126.63;58.33;;;;;;;;;;4469291;32;20207;-87
2022/11/11 02:19:34;;;;;;;118.53;56.20;;;;;;;;;;4468965;32;20281;-88
2022/11/11 02:22:07;;;;;;;130.43;57.07;;;;;;;;;;4469412;32;20270;-87
2022/11/11 02:24:36;;;;;;;129.73;56.50;;;;;;;;;;4469272;32;20238;-87
2022/11/11 02:27:05;;;;;;;129.43;59.23;;;;;;;;;;4469095;32;20212;-86
2022/11/11 02:29:35;;;;;;;115.70;56.77;;;;;;;;;;4468894;32;20264;-87
2022/11/11 02:32:02;;;;;;;108.97;52.10;;;;;;;;;;4468903;32;20545;-87
2022/11/11 02:34:31;;;;;;;108.10;50.77;;;;;;;;;;4468955;32;20224;-87
2022/11/11 02:36:58;;;;;;;109.30;50.83;;;;;;;;;;4469402;32;20667;-87
2022/11/11 02:39:26;;;;;;;108.40;48.83;;;;;;;;;;4473029;32;20257;-89
2022/11/11 02:41:57;;;;;;;105.00;49.93;;;;;;;;;;4476693;32;20256;-88
2022/11/11 02:44:25;;;;;;;97.17;48.07;;;;;;;;;;4475457;32;20220;-87
2022/11/11 02:46:52;;;;;;;87.20;45.10;;;;;;;;;;4473682;32;20242;-87
2022/11/11 02:49:19;;;;;;;82.93;42.73;;;;;;;;;;4468822;32;20701;-89
2022/11/11 02:51:46;;;;;;;66.10;39.23;;;;;;;;;;4468784;32;20641;-88
2022/11/11 02:54:13;;;;;;;76.40;38.33;;;;;;;;;;4468674;32;20736;-88
2022/11/11 02:59:27;;;;;;;67.33;37.10;;;;;;;;;;4468671;32;20252;-89
2022/11/11 03:01:54;;;;;;;57.87;34.80;;;;;;;;;;4467595;32;20246;-89
2022/11/11 03:04:21;;;;;;;58.17;32.93;;;;;;;;;;4468606;32;20285;-88
2022/11/11 03:06:48;;;;;;;59.23;33.73;;;;;;;;;;4468462;32;20223;-89
2022/11/11 03:09:17;;;;;;;64.60;36.30;;;;;;;;;;4469075;32;20215;-88
2022/11/11 03:11:44;;;;;;;60.20;33.27;;;;;;;;;;4468462;32;20595;-89
2022/11/11 03:14:18;;;;;;;53.93;32.70;;;;;;;;;;4467957;32;20271;-89
2022/11/11 03:19:30;;;;;;;74.00;36.93;;;;;;;;;;4468322;32;20288;-89
2022/11/11 03:21:58;;;;;;;61.37;35.03;;;;;;;;;;4468991;32;20571;-89
2022/11/11 03:25:36;;;;;;;67.57;36.80;;;;;;;;;;4468312;32;20288;-88
2022/11/11 03:27:16;;;;;;;70.87;38.20;;;;;;;;;;4468295;32;20739;-89
2022/11/11 03:29:44;;;;;;;68.90;36.40;;;;;;;;;;4468612;32;20208;-89
2022/11/11 03:32:19;;;;;;;67.90;36.67;;;;;;;;;;4468189;32;20349;-89
2022/11/11 03:34:46;;;;;;;65.60;37.03;;;;;;;;;;4467575;32;20211;-87
2022/11/11 03:39:57;;;;;;;64.80;37.03;;;;;;;;;;4468420;32;20244;-89
2022/11/11 03:42:27;;;;;;;61.87;36.87;;;;;;;;;;4468327;32;20227;-89
2022/11/11 03:44:54;;;;;;;60.63;36.07;;;;;;;;;;4468210;32;20200;-89
2022/11/11 03:47:22;;;;;;;63.00;36.77;;;;;;;;;;4468130;32;20226;-87
2022/11/11 03:49:49;;;;;;;66.27;38.77;;;;;;;;;;4468811;32;20211;-90
2022/11/11 03:52:16;;;;;;;65.43;36.73;;;;;;;;;;4468085;32;20280;-90
2022/11/11 03:54:45;;;;;;;76.57;41.10;;;;;;;;;;4468144;32;20228;-86
2022/11/11 03:57:34;;;;;;;81.70;41.47;;;;;;;;;;4468283;32;20334;-87
2022/11/11 04:00:01;;;;;;;116.00;49.87;;;;;;;;;;4474703;32;20216;-87
2022/11/11 04:10:45;;;;;;;66.97;28.33;;;;;;;;;;4468380;32;20218;-87
2022/11/11 04:16:06;;;;;;;206.43;28.07;;;;;;;;;;4467399;32;20231;-87
2022/11/11 04:25:47;;;;;;;43.37;29.20;;;;;;;;;;4468082;32;20260;-87
2022/11/11 04:26:54;;;;;;;41.57;26.60;;;;;;;;;;4471222;32;20677;-87
2022/11/11 04:29:29;;;;;;;37.60;26.97;;;;;;;;;;4473035;32;20247;-89
2022/11/11 04:34:46;;;;;;;38.90;27.13;;;;;;;;;;4470847;32;20242;-88
2022/11/11 04:37:15;;;;;;;34.73;26.13;;;;;;;;;;4471393;32;20363;-88
2022/11/11 04:42:28;;;;;;;44.33;28.77;;;;;;;;;;4470494;32;20219;-89
2022/11/11 04:47:58;;;;;;;50.93;31.07;;;;;;;;;;4472097;32;20653;-88
2022/11/11 04:50:28;;;;;;;53.63;30.90;;;;;;;;;;4469849;32;20564;-88
2022/11/11 04:52:56;;;;;;;60.00;32.97;;;;;;;;;;4470535;32;20247;-88
2022/11/11 04:58:09;;;;;;;87.23;40.63;;;;;;;;;;4470447;32;20206;-88
2022/11/11 05:00:37;;;;;;;83.20;45.30;;;;;;;;;;4470753;32;20211;-88
2022/11/11 05:03:15;;;;;;;93.27;49.03;;;;;;;;;;4470754;32;20666;-89
2022/11/11 05:11:18;;;;;;;99.70;49.20;;;;;;;;;;4470235;32;20699;-88
2022/11/11 05:22:11;;;;;;;95.27;49.27;;;;;;;;;;4470388;32;20203;-88
2022/11/11 05:27:23;;;;;;;93.57;50.23;;;;;;;;;;4471924;32;20286;-88
2022/11/11 05:29:49;;;;;;;84.60;48.63;;;;;;;;;;4469853;32;20262;-89
2022/11/11 05:32:20;;;;;;;97.83;50.50;;;;;;;;;;4469941;32;20231;-88
2022/11/11 05:34:47;;;;;;;100.80;57.20;;;;;;;;;;4470139;32;20235;-88
2022/11/11 05:37:17;;;;;;;163.13;93.53;;;;;;;;;;4469508;32;20208;-88
2022/11/11 05:39:47;;;;;;;113.03;65.17;;;;;;;;;;4469791;32;20228;-88
2022/11/11 05:42:24;;;;;;;101.73;56.90;;;;;;;;;;4470250;32;20226;-89
2022/11/11 05:44:52;;;;;;;111.20;61.73;;;;;;;;;;4469610;32;20657;-88
2022/11/11 05:47:19;;;;;;;115.23;71.50;;;;;;;;;;4469983;32;20208;-88
2022/11/11 05:49:46;;;;;;;102.30;59.50;;;;;;;;;;4469647;32;20255;-90
2022/11/11 05:52:15;;;;;;;93.03;57.50;;;;;;;;;;4469881;32;20218;-90
2022/11/11 05:54:43;;;;;;;111.87;66.40;;;;;;;;;;4469339;32;20255;-87
2022/11/11 05:57:10;;;;;;;130.53;71.13;;;;;;;;;;4469900;32;20208;-88
2022/11/11 05:59:38;;;;;;;133.50;65.73;;;;;;;;;;4470763;32;20284;-88
2022/11/11 06:02:06;;;;;;;129.87;65.57;;;;;;;;;;4469141;32;20280;-87
2022/11/11 06:04:37;;;;;;;120.20;67.73;;;;;;;;;;4469432;32;20331;-88
2022/11/11 06:07:04;;;;;;;107.47;58.13;;;;;;;;;;4468918;32;20582;-88
2022/11/11 06:09:31;;;;;;;107.80;52.63;;;;;;;;;;4473944;32;20284;-86
2022/11/11 06:12:02;;;;;;;95.87;52.93;;;;;;;;;;4469920;32;20233;-88
2022/11/11 06:14:30;;;;;;;100.73;53.67;;;;;;;;;;4471601;32;20241;-87
2022/11/11 06:16:57;;;;;;;107.53;55.27;;;;;;;;;;4473249;32;20281;-87
2022/11/11 06:19:24;;;;;;;99.37;56.23;;;;;;;;;;4473609;32;20253;-87
2022/11/11 06:21:59;;;;;;;109.40;60.37;;;;;;;;;;4470132;32;20204;-87
2022/11/11 06:24:26;;;;;;;98.30;57.70;;;;;;;;;;4470842;32;20662;-88
2022/11/11 06:26:52;;;;;;;97.43;56.80;;;;;;;;;;4470387;32;20328;-87
2022/11/11 06:29:29;;;;;;;107.07;56.67;;;;;;;;;;4470584;32;20610;-87
2022/11/11 06:31:56;;;;;;;91.30;54.90;;;;;;;;;;4472776;32;20567;-88
2022/11/11 06:34:26;;;;;;;91.73;56.50;;;;;;;;;;4472362;32;20273;-86
2022/11/11 06:36:53;;;;;;;90.60;49.67;;;;;;;;;;4468917;32;20318;-91
2022/11/11 06:39:21;;;;;;;92.43;51.93;;;;;;;;;;4469513;32;20240;-87
2022/11/11 06:41:48;;;;;;;98.87;56.97;;;;;;;;;;4467921;32;20314;-86
2022/11/11 06:44:15;;;;;;;93.13;60.77;;;;;;;;;;4471515;32;20200;-87
2022/11/11 06:46:44;;;;;;;112.13;66.70;;;;;;;;;;4470083;32;20274;-87
2022/11/11 06:49:12;;;;;;;136.43;80.47;;;;;;;;;;4470484;32;20294;-88
2022/11/11 06:51:38;;;;;;;142.23;82.43;;;;;;;;;;4472897;32;20220;-88
2022/11/11 06:54:07;;;;;;;140.37;82.30;;;;;;;;;;4471282;32;20219;-87
2022/11/11 06:56:34;;;;;;;126.77;75.37;;;;;;;;;;4471130;32;20224;-86
2022/11/11 06:59:07;;;;;;;126.17;72.40;;;;;;;;;;4471083;32;20211;-87
2022/11/11 07:01:34;;;;;;;113.30;70.97;;;;;;;;;;4469821;32;20284;-87
2022/11/11 07:04:03;;;;;;;116.80;74.37;;;;;;;;;;4468937;32;20200;-87
2022/11/11 07:06:30;;;;;;;119.90;74.70;;;;;;;;;;4469215;32;20258;-87
2022/11/11 07:08:57;;;;;;;124.40;78.10;;;;;;;;;;4468746;32;20216;-87
2022/11/11 07:11:24;;;;;;;148.00;87.33;;;;;;;;;;4468931;32;20259;-87
2022/11/11 07:13:53;;;;;;;141.27;84.33;;;;;;;;;;4468530;32;20199;-87
2022/11/11 07:16:21;;;;;;;131.97;77.90;;;;;;;;;;4468749;32;20204;-88
2022/11/11 07:18:47;;;;;;;147.90;81.10;;;;;;;;;;4468972;32;20230;-88
2022/11/11 07:21:16;;;;;;;203.70;97.60;;;;;;;;;;4470114;32;20211;-88
2022/11/11 07:23:43;;;;;;;138.10;87.00;;;;;;;;;;4469614;32;20605;-87
2022/11/11 07:26:10;;;;;;;156.57;90.27;;;;;;;;;;4467043;32;20216;-88
2022/11/11 07:28:37;;;;;;;154.70;88.53;;;;;;;;;;4468304;32;20229;-88
2022/11/11 07:31:06;;;;;;;174.37;103.30;;;;;;;;;;4469002;32;20268;-88
2022/11/11 07:33:32;;;;;;;163.50;93.60;;;;;;;;;;4468938;32;20664;-87
2022/11/11 07:36:05;;;;;;;162.90;94.77;;;;;;;;;;4468384;32;20260;-87
2022/11/11 07:38:35;;;;;;;171.23;96.57;;;;;;;;;;4468757;32;20292;-88
2022/11/11 07:41:02;;;;;;;184.60;103.23;;;;;;;;;;4468365;32;20231;-88
2022/11/11 07:43:29;;;;;;;165.30;95.87;;;;;;;;;;4467998;32;20224;-87
2022/11/11 07:45:57;;;;;;;150.27;91.37;;;;;;;;;;4468612;32;20604;-88
2022/11/11 07:48:26;;;;;;;135.10;83.00;;;;;;;;;;4468168;32;20294;-88
2022/11/11 07:50:59;;;;;;;134.67;82.70;;;;;;;;;;4467791;32;20320;-87
2022/11/11 07:53:27;;;;;;;136.73;79.37;;;;;;;;;;4467920;32;20268;-88
2022/11/11 07:55:55;;;;;;;107.70;71.33;;;;;;;;;;4468113;32;20275;-88
2022/11/11 07:58:26;;;;;;;101.77;68.60;;;;;;;;;;4468722;32;20200;-88
2022/11/11 08:00:53;;;;;;;119.73;74.17;;;;;;;;;;4469552;32;20226;-87
2022/11/11 08:03:20;;;;;;;123.77;77.00;;;;;;;;;;4470209;32;20291;-88
2022/11/11 08:05:47;;;;;;;151.50;88.37;;;;;;;;;;4471540;32;20204;-87
2022/11/11 08:08:17;;;;;;;144.57;84.23;;;;;;;;;;4471148;32;20271;-88
2022/11/11 08:10:44;;;;;;;139.43;84.07;;;;;;;;;;4471424;32;20276;-88
2022/11/11 08:16:07;;;;;;;130.73;83.07;;;;;;;;;;4451622;32;20211;-87
2022/11/11 08:18:35;;;;;;;128.33;74.90;;;;;;;;;;4470864;32;20284;-88
2022/11/11 08:21:03;;;;;;;129.97;80.87;;;;;;;;;;4471068;32;20211;-88
2022/11/11 08:23:37;;;;;;;116.63;73.97;;;;;;;;;;4471470;32;20228;-87
2022/11/11 08:26:06;;;;;;;103.97;63.73;;;;;;;;;;4472228;32;20345;-89
2022/11/11 08:28:35;;;;;;;91.80;59.50;;;;;;;;;;4471041;32;20257;-88
2022/11/11 08:31:03;;;;;;;88.90;55.60;;;;;;;;;;4471512;32;20237;-88
2022/11/11 08:33:33;;;;;;;98.23;61.60;;;;;;;;;;4471201;32;20560;-88
2022/11/11 08:36:01;;;;;;;92.03;60.27;;;;;;;;;;4471476;32;20257;-88
2022/11/11 08:38:28;;;;;;;98.03;63.67;;;;;;;;;;4470669;32;20338;-87
2022/11/11 08:40:59;;;;;;;104.17;66.80;;;;;;;;;;4471311;32;20297;-87
2022/11/11 08:43:31;;;;;;;101.37;66.70;;;;;;;;;;4471114;32;20200;-88
2022/11/11 08:46:02;;;;;;;103.27;68.07;;;;;;;;;;4471323;32;20216;-88
2022/11/11 08:48:31;;;;;;;99.10;66.93;;;;;;;;;;4471472;32;20564;-88
2022/11/11 08:50:58;;;;;;;103.23;66.50;;;;;;;;;;4470730;32;20307;-88
2022/11/11 08:53:27;;;;;;;108.70;73.13;;;;;;;;;;4469819;32;20249;-89
2022/11/11 08:55:55;;;;;;;112.67;70.07;;;;;;;;;;4470680;32;20279;-87
2022/11/11 08:58:23;;;;;;;117.23;72.80;;;;;;;;;;4470494;32;20208;-88
2022/11/11 09:00:50;;;;;;;110.07;74.03;;;;;;;;;;4470745;32;20240;-87
2022/11/11 09:03:19;;;;;;;115.33;74.27;;;;;;;;;;4470206;32;20199;-87
2022/11/11 09:05:46;;;;;;;111.97;72.63;;;;;;;;;;4473794;32;20629;-88
2022/11/11 09:08:18;;;;;;;113.63;72.70;;;;;;;;;;4473670;32;20296;-90
2022/11/11 09:10:45;;;;;;;115.93;73.27;;;;;;;;;;4472057;32;20308;-88
2022/11/11 09:13:12;;;;;;;107.77;70.23;;;;;;;;;;4470644;32;20211;-89
2022/11/11 09:15:39;;;;;;;117.43;70.93;;;;;;;;;;4471345;32;20216;-89
2022/11/11 09:18:07;;;;;;;101.20;63.97;;;;;;;;;;4471402;32;20222;-87
2022/11/11 09:20:37;;;;;;;89.27;57.83;;;;;;;;;;4471857;32;20231;-88
2022/11/11 09:23:04;;;;;;;71.90;50.33;;;;;;;;;;4472842;32;20208;-88
2022/11/11 09:25:33;;;;;;;74.03;51.53;;;;;;;;;;4470412;32;20220;-88
2022/11/11 09:28:01;;;;;;;78.87;51.50;;;;;;;;;;4470662;32;20280;-88
2022/11/11 09:30:35;;;;;;;74.50;44.77;;;;;;;;;;4470779;32;20220;-89
2022/11/11 09:33:04;;;;;;;63.90;42.97;;;;;;;;;;4471218;32;20636;-87
2022/11/11 09:35:32;;;;;;;77.40;50.17;;;;;;;;;;4472874;32;20240;-87
2022/11/11 09:38:01;;;;;;;72.00;53.83;;;;;;;;;;4472408;32;20266;-88
2022/11/11 09:40:41;;;;;;;72.87;56.30;;;;;;;;;;4471113;32;20231;-87
2022/11/11 09:43:20;;;;;;;83.80;62.23;;;;;;;;;;4471415;32;20211;-89
2022/11/11 09:46:01;;;;;;;89.27;63.07;;;;;;;;;;4471300;32;20238;-89
2022/11/11 09:48:44;;;;;;;71.23;57.87;;;;;;;;;;4471049;32;20234;-88
2022/11/11 09:51:18;;;;;;;66.17;47.30;;;;;;;;;;4470496;32;20337;-88
2022/11/11 09:53:51;;;;;;;58.07;46.43;;;;;;;;;;4471402;32;20354;-88
2022/11/11 09:56:22;;;;;;;72.30;50.47;;;;;;;;;;4470831;32;20218;-89
2022/11/11 09:58:52;;;;;;;64.57;48.00;;;;;;;;;;4471206;32;20271;-89
2022/11/11 10:01:25;;;;;;;55.67;40.93;;;;;;;;;;4473972;32;20257;-87
2022/11/11 10:04:00;;;;;;;62.60;45.23;;;;;;;;;;4474645;32;20200;-88
2022/11/11 10:06:34;;;;;;;64.17;44.40;;;;;;;;;;4480538;32;20708;-88
2022/11/11 10:09:08;;;;;;;56.07;38.60;;;;;;;;;;4470709;32;20249;-89
2022/11/11 10:11:50;;;;;;;70.83;43.87;;;;;;;;;;4470334;32;20303;-89
2022/11/11 10:14:17;;;;;;;51.73;36.13;;;;;;;;;;4469969;32;20204;-88
2022/11/11 10:16:52;;;;;;;42.57;31.07;;;;;;;;;;4470603;32;20679;-89
2022/11/11 10:19:34;;;;;;;46.47;35.20;;;;;;;;;;4470134;32;20203;-86
2022/11/11 10:22:06;;;;;;;44.83;31.93;;;;;;;;;;4469662;32;20260;-90
2022/11/11 10:24:39;;;;;;;42.40;30.43;;;;;;;;;;4469680;32;20256;-89
2022/11/11 10:27:17;;;;;;;43.47;27.13;;;;;;;;;;4469619;32;20260;-88
2022/11/11 10:29:45;;;;;;;44.20;28.20;;;;;;;;;;4468172;32;20342;-87
2022/11/11 10:32:19;;;;;;;39.37;29.07;;;;;;;;;;4468990;32;20226;-87
2022/11/11 10:34:46;;;;;;;40.20;28.23;;;;;;;;;;4469410;32;20275;-87
2022/11/11 10:37:19;;;;;;;41.83;25.43;;;;;;;;;;4469293;32;20507;-90
2022/11/11 10:40:03;;;;;;;35.43;22.13;;;;;;;;;;4468988;32;20223;-89
2022/11/11 10:42:34;;;;;;;36.53;24.43;;;;;;;;;;4469117;32;20219;-88
2022/11/11 10:45:02;;;;;;;40.77;27.03;;;;;;;;;;4468987;32;20252;-86
2022/11/11 10:47:42;;;;;;;37.23;25.17;;;;;;;;;;4468351;32;20228;-86
2022/11/11 10:50:17;;;;;;;31.57;22.40;;;;;;;;;;4468424;32;20215;-87
2022/11/11 10:52:51;;;;;;;34.87;22.50;;;;;;;;;;4468831;32;20223;-87
2022/11/11 10:55:26;;;;;;;29.00;21.03;;;;;;;;;;4468561;32;20220;-87
2022/11/11 10:57:57;;;;;;;31.53;21.27;;;;;;;;;;4469645;32;20204;-86
2022/11/11 11:00:24;;;;;;;30.63;21.10;;;;;;;;;;4468546;32;20224;-86
2022/11/11 11:03:04;;;;;;;28.67;20.83;;;;;;;;;;4469186;32;20208;-90
2022/11/11 11:05:40;;;;;;;24.70;18.90;;;;;;;;;;4473879;32;20176;-87
2022/11/11 11:08:11;;;;;;;26.00;20.13;;;;;;;;;;4481144;32;20256;-89
2022/11/11 11:10:42;;;;;;;25.80;19.63;;;;;;;;;;4484004;32;20247;-87
2022/11/11 11:13:17;;;;;;;29.17;19.23;;;;;;;;;;4474180;32;20203;-87
2022/11/11 11:15:55;;;;;;;31.97;19.23;;;;;;;;;;4473188;32;20223;-87
2022/11/11 11:18:22;;;;;;;25.30;19.87;;;;;;;;;;4470595;32;20252;-88
2022/11/11 11:20:58;;;;;;;29.47;19.67;;;;;;;;;;4472129;32;20251;-87
2022/11/11 11:23:44;;;;;;;26.27;20.37;;;;;;;;;;4471029;32;20209;-89
2022/11/11 11:26:15;;;;;;;35.90;22.13;;;;;;;;;;4470086;32;20218;-90
2022/11/11 11:28:59;;;;;;;30.90;22.60;;;;;;;;;;4469013;32;20222;-88
2022/11/11 11:31:36;;;;;;;39.77;23.80;;;;;;;;;;4468872;32;20281;-88
2022/11/11 11:34:05;;;;;;;30.97;21.90;;;;;;;;;;4468130;32;20204;-88
2022/11/11 11:36:35;;;;;;;30.80;23.37;;;;;;;;;;4469581;32;20236;-88
2022/11/11 11:39:02;;;;;;;36.20;23.97;;;;;;;;;;4471143;32;20264;-88
2022/11/11 11:41:49;;;;;;;32.13;24.23;;;;;;;;;;4470927;32;20236;-87
2022/11/11 11:44:27;;;;;;;36.03;24.90;;;;;;;;;;4471368;32;20200;-87
2022/11/11 11:47:03;;;;;;;39.07;25.07;;;;;;;;;;4471294;32;20291;-88
2022/11/11 11:49:48;;;;;;;31.33;21.67;;;;;;;;;;4471370;32;20552;-87
2022/11/11 11:52:25;;;;;;;33.87;23.33;;;;;;;;;;4471223;32;20229;-88
2022/11/11 11:54:58;;;;;;;40.30;24.50;;;;;;;;;;4440643;32;20289;-88
2022/11/11 11:57:40;;;;;;;35.63;23.23;;;;;;;;;;4440292;32;20220;-88
2022/11/11 12:00:18;;;;;;;40.60;25.83;;;;;;;;;;4439868;32;20276;-88
2022/11/11 12:03:08;;;;;;;38.73;26.23;;;;;;;;;;4439815;32;20250;-88
2022/11/11 12:05:43;;;;;;;34.57;24.80;;;;;;;;;;4440246;32;20227;-87
2022/11/11 12:08:32;;;;;;;37.77;23.50;;;;;;;;;;4440294;32;20234;-86
2022/11/11 12:11:05;;;;;;;34.73;24.77;;;;;;;;;;4439589;32;20706;-86
2022/11/11 12:13:48;;;;;;;32.60;22.97;;;;;;;;;;4438825;32;20602;-86
2022/11/11 12:16:24;;;;;;;39.90;25.90;;;;;;;;;;4438787;32;20192;-86
2022/11/11 12:19:05;;;;;;;35.20;24.50;;;;;;;;;;4438306;32;20297;-87
2022/11/11 12:21:40;;;;;;;34.57;27.83;;;;;;;;;;4439616;32;20220;-88
2022/11/11 12:24:21;;;;;;;22.67;17.83;;;;;;;;;;4439901;32;20338;-87
2022/11/11 12:26:57;;;;;;;35.47;22.63;;;;;;;;;;4439690;32;20204;-87
2022/11/11 12:29:38;;;;;;;29.17;19.30;;;;;;;;;;4439262;32;20710;-88
2022/11/11 12:32:28;;;;;;;25.07;18.53;;;;;;;;;;4440384;32;20285;-87
2022/11/11 12:35:21;;;;;;;28.70;17.50;;;;;;;;;;4439655;32;20274;-87
2022/11/11 12:37:59;;;;;;;18.67;15.00;;;;;;;;;;4439794;32;20296;-87
2022/11/11 12:40:42;;;;;;;31.07;21.50;;;;;;;;;;4439409;32;20569;-87
2022/11/11 12:43:24;;;;;;;35.70;21.93;;;;;;;;;;4439204;32;20607;-87
2022/11/11 12:46:01;;;;;;;38.03;20.83;;;;;;;;;;4439693;32;20219;-88
2022/11/11 12:48:42;;;;;;;47.17;25.30;;;;;;;;;;4438494;32;20234;-87
2022/11/11 12:51:19;;;;;;;28.87;19.27;;;;;;;;;;4439804;32;20733;-87
2022/11/11 12:53:55;;;;;;;19.73;13.30;;;;;;;;;;4457095;32;20680;-87
2022/11/11 12:56:30;;;;;;;26.57;18.67;;;;;;;;;;4470418;32;20196;-87
2022/11/11 12:59:03;;;;;;;18.07;14.77;;;;;;;;;;4470253;32;20298;-88
2022/11/11 13:01:46;;;;;;;31.90;15.30;;;;;;;;;;4470292;32;20222;-87
2022/11/11 13:04:31;;;;;;;14.43;10.90;;;;;;;;;;4470631;32;20204;-87
2022/11/11 13:07:19;;;;;;;22.83;14.60;;;;;;;;;;4469254;32;20310;-87
2022/11/11 13:09:58;;;;;;;19.07;12.30;;;;;;;;;;4457443;32;20619;-86
2022/11/11 13:12:34;;;;;;;14.67;12.10;;;;;;;;;;4469995;32;20208;-86
2022/11/11 13:15:05;;;;;;;12.83;10.37;;;;;;;;;;4470239;32;20224;-87
2022/11/11 13:17:35;;;;;;;36.13;18.27;;;;;;;;;;4469996;32;20213;-86
2022/11/11 13:20:12;;;;;;;35.23;18.30;;;;;;;;;;4470075;32;20267;-88
2022/11/11 13:22:39;;;;;;;31.70;18.90;;;;;;;;;;4469825;32;20672;-88
2022/11/11 13:25:07;;;;;;;16.40;12.50;;;;;;;;;;4469484;32;20248;-87
2022/11/11 13:27:42;;;;;;;30.83;17.27;;;;;;;;;;4469770;32;20204;-87
2022/11/11 13:30:46;;;;;;;15.20;10.80;;;;;;;;;;4469465;32;20268;-88
2022/11/11 13:33:19;;;;;;;11.53;9.83;;;;;;;;;;4469854;32;20219;-88
2022/11/11 13:35:48;;;;;;;15.70;9.33;;;;;;;;;;4469451;32;20224;-87
2022/11/11 13:38:26;;;;;;;22.00;14.40;;;;;;;;;;4469637;32;20222;-87
2022/11/11 13:40:59;;;;;;;20.17;14.50;;;;;;;;;;4469530;32;20621;-88
2022/11/11 13:43:33;;;;;;;25.73;15.80;;;;;;;;;;4469928;32;20224;-88
2022/11/11 13:46:03;;;;;;;33.47;18.63;;;;;;;;;;4468885;32;20211;-88
2022/11/11 13:48:33;;;;;;;19.73;10.63;;;;;;;;;;4469170;32;20625;-88
2022/11/11 13:51:25;;;;;;;19.53;13.60;;;;;;;;;;4469444;32;20212;-88
2022/11/11 13:53:53;;;;;;;12.53;9.27;;;;;;;;;;4469071;32;20296;-87
2022/11/11 13:56:26;;;;;;;14.80;7.73;;;;;;;;;;4469184;32;20280;-87
2022/11/11 13:58:56;;;;;;;10.33;7.83;;;;;;;;;;4468899;32;20208;-88
2022/11/11 14:01:25;;;;;;;13.13;8.77;;;;;;;;;;4468867;32;20315;-87
2022/11/11 14:04:03;;;;;;;8.87;7.10;;;;;;;;;;4469086;32;20574;-88
2022/11/11 14:06:54;;;;;;;13.60;8.50;;;;;;;;;;4471017;32;20220;-88
2022/11/11 14:09:57;;;;;;;15.23;9.07;;;;;;;;;;4471222;32;20261;-87
2022/11/11 14:12:36;;;;;;;16.40;9.53;;;;;;;;;;4470251;32;20199;-87
2022/11/11 14:15:07;;;;;;;15.00;9.50;;;;;;;;;;4470231;32;20212;-87
2022/11/11 14:17:35;;;;;;;22.43;13.63;;;;;;;;;;4469893;32;20204;-86
2022/11/11 14:20:38;;;;;;;12.23;9.20;;;;;;;;;;4470083;32;20241;-87
2022/11/11 14:23:24;;;;;;;16.03;10.67;;;;;;;;;;4469900;32;20207;-86
2022/11/11 14:25:52;;;;;;;19.17;10.13;;;;;;;;;;4470340;32;20559;-88
2022/11/11 14:28:26;;;;;;;18.70;11.33;;;;;;;;;;4468372;32;20301;-87
2022/11/11 14:30:54;;;;;;;19.60;15.07;;;;;;;;;;4469894;32;20221;-87
2022/11/11 14:33:34;;;;;;;24.50;17.17;;;;;;;;;;4470248;32;20249;-86
2022/11/11 14:36:22;;;;;;;24.17;17.23;;;;;;;;;;4477828;32;20279;-88
2022/11/11 14:38:57;;;;;;;23.40;17.50;;;;;;;;;;4482378;32;20268;-86
2022/11/11 14:41:46;;;;;;;18.47;14.83;;;;;;;;;;4483124;32;20231;-87
2022/11/11 14:44:43;;;;;;;17.97;12.10;;;;;;;;;;4481752;32;20283;-85
2022/11/11 14:47:33;;;;;;;12.40;9.40;;;;;;;;;;4468103;32;20224;-87
2022/11/11 14:50:01;;;;;;;14.33;9.50;;;;;;;;;;4471480;32;20222;-87
2022/11/11 14:52:37;;;;;;;19.90;9.97;;;;;;;;;;4470158;32;20680;-87
2022/11/11 14:55:16;;;;;;;17.97;10.00;;;;;;;;;;4469416;32;20226;-88
2022/11/11 14:57:47;;;;;;;30.57;19.43;;;;;;;;;;4469101;32;20652;-87
2022/11/11 15:00:22;;;;;;;34.60;21.77;;;;;;;;;;4468720;32;20209;-88
2022/11/11 15:02:55;;;;;;;46.97;27.67;;;;;;;;;;4467612;32;20312;-88
2022/11/11 15:05:30;;;;;;;35.47;27.03;;;;;;;;;;4469114;32;20234;-88
2022/11/11 15:08:19;;;;;;;47.70;27.80;;;;;;;;;;4468934;32;20227;-87
2022/11/11 15:11:03;;;;;;;50.10;31.10;;;;;;;;;;4467963;32;20204;-87
2022/11/11 15:14:09;;;;;;;48.80;33.10;;;;;;;;;;4468181;32;20254;-88
2022/11/11 15:16:55;;;;;;;50.67;29.13;;;;;;;;;;4468791;32;20656;-87
2022/11/11 15:19:41;;;;;;;39.03;26.63;;;;;;;;;;4467175;32;20227;-88
2022/11/11 15:22:24;;;;;;;38.30;23.10;;;;;;;;;;4468315;32;20232;-88
2022/11/11 15:25:01;;;;;;;42.93;27.17;;;;;;;;;;4468095;32;20235;-88
2022/11/11 15:27:33;;;;;;;40.37;24.40;;;;;;;;;;4468705;32;20263;-88
2022/11/11 15:30:09;;;;;;;36.83;23.57;;;;;;;;;;4469589;32;20211;-88
2022/11/11 15:32:52;;;;;;;27.30;18.20;;;;;;;;;;4468518;32;20241;-88
2022/11/11 15:35:36;;;;;;;26.20;15.07;;;;;;;;;;4468608;32;20271;-87
2022/11/11 15:38:08;;;;;;;43.00;23.00;;;;;;;;;;4467329;32;20240;-90
2022/11/11 15:40:45;;;;;;;45.57;23.80;;;;;;;;;;4468574;32;20226;-87
2022/11/11 15:43:17;;;;;;;39.47;23.77;;;;;;;;;;4467427;32;20312;-87
2022/11/11 15:45:44;;;;;;;43.57;24.50;;;;;;;;;;4469475;32;20256;-88
2022/11/11 15:48:19;;;;;;;37.43;24.80;;;;;;;;;;4469182;32;20219;-87
2022/11/11 15:50:46;;;;;;;45.40;25.13;;;;;;;;;;4469702;32;20231;-87
2022/11/11 15:53:21;;;;;;;49.17;27.97;;;;;;;;;;4468768;32;20254;-88
2022/11/11 15:55:55;;;;;;;41.40;28.33;;;;;;;;;;4469396;32;20259;-87
2022/11/11 15:58:29;;;;;;;40.53;28.80;;;;;;;;;;4468613;32;20220;-88
2022/11/11 16:00:57;;;;;;;47.90;28.23;;;;;;;;;;4469587;32;20211;-87
2022/11/11 16:03:30;;;;;;;50.07;32.33;;;;;;;;;;4468826;32;20231;-86
2022/11/11 16:05:57;;;;;;;47.73;33.73;;;;;;;;;;4469514;32;20204;-87
2022/11/11 16:08:24;;;;;;;45.30;29.67;;;;;;;;;;4468752;32;20231;-88